Time;durP1;ratioP1;P1;durP2;ratioP2;P2;SDS_P1;SDS_P2;PMS_P1;PMS_P2;Temp;Humidity;BMP_temperature;BMP_pressure;BME280_temperature;BME280_humidity;BME280_pressure;Samples;Min_cycle;Max_cycle;Signal;HPM_P1;HPM_P2
2022/05/12 05:00:34;;;;;;;3.63;3.37;;;19.20;97.20;;;;;;1736816;28;20216;-78
2022/05/12 05:01:24;;;;;;;4.30;3.90;;;19.20;97.20;;;;;;1736494;28;20230;-77
2022/05/12 05:02:16;;;;;;;4.80;3.90;;;19.30;97.20;;;;;;1736399;28;20278;-78
2022/05/12 05:03:08;;;;;;;3.90;3.60;;;19.30;97.20;;;;;;1736152;28;20219;-78
2022/05/12 05:04:01;;;;;;;4.53;3.75;;;19.30;97.20;;;;;;1736213;28;20195;-77
2022/05/12 05:04:51;;;;;;;5.00;3.90;;;19.30;97.20;;;;;;1736268;28;20334;-79
2022/05/12 05:05:43;;;;;;;3.73;3.43;;;19.30;97.20;;;;;;1736763;28;20291;-78
2022/05/12 05:06:34;;;;;;;3.70;3.35;;;19.30;97.20;;;;;;1735697;28;20199;-80
2022/05/12 05:07:27;;;;;;;6.67;3.67;;;19.30;97.20;;;;;;1735877;28;20203;-81
2022/05/12 05:08:21;;;;;;;4.20;3.80;;;19.40;97.20;;;;;;1736786;28;20442;-80
2022/05/12 05:09:12;;;;;;;5.70;3.97;;;19.40;97.20;;;;;;1736460;28;20274;-81
2022/05/12 05:10:04;;;;;;;3.95;3.50;;;19.40;97.20;;;;;;1735882;28;20227;-78
2022/05/12 05:10:56;;;;;;;3.85;3.55;;;19.40;97.20;;;;;;1735341;28;20199;-78
2022/05/12 05:11:47;;;;;;;5.50;4.00;;;19.40;97.20;;;;;;1735807;28;20647;-79
2022/05/12 05:12:39;;;;;;;4.17;3.87;;;19.50;97.20;;;;;;1735712;28;20549;-78
2022/05/12 05:13:30;;;;;;;3.60;3.17;;;19.50;97.20;;;;;;1736122;28;20273;-79
2022/05/12 05:14:22;;;;;;;6.40;3.88;;;19.50;97.20;;;;;;1736050;28;20576;-80
2022/05/12 05:15:13;;;;;;;3.92;3.42;;;19.50;97.20;;;;;;1736716;28;20702;-80
2022/05/12 05:16:07;;;;;;;3.88;3.47;;;19.60;97.20;;;;;;1741719;28;20223;-80
2022/05/12 05:16:59;;;;;;;3.92;3.60;;;19.60;97.20;;;;;;1738006;28;20210;-78
2022/05/12 05:17:51;;;;;;;3.80;3.50;;;19.70;97.20;;;;;;1735788;28;20192;-78
2022/05/12 05:18:42;;;;;;;4.50;3.70;;;19.70;97.20;;;;;;1736147;28;20678;-78
2022/05/12 05:19:35;;;;;;;7.72;3.55;;;19.70;97.20;;;;;;1736684;28;20732;-79
2022/05/12 05:20:27;;;;;;;6.22;3.20;;;19.80;97.20;;;;;;1736808;28;20208;-79
2022/05/12 05:21:19;;;;;;;4.50;3.80;;;19.80;97.20;;;;;;1736522;28;20204;-78
2022/05/12 05:22:10;;;;;;;6.18;3.80;;;19.80;97.20;;;;;;1736983;28;20663;-80
2022/05/12 05:23:02;;;;;;;4.20;3.50;;;19.80;97.20;;;;;;1736762;28;20295;-79
2022/05/12 05:23:53;;;;;;;4.95;3.70;;;19.90;97.20;;;;;;1737138;28;20477;-79
2022/05/12 05:24:44;;;;;;;4.10;3.70;;;19.90;97.20;;;;;;1736637;28;20200;-79
2022/05/12 05:25:35;;;;;;;3.85;3.55;;;19.90;97.20;;;;;;1736554;28;20450;-79
2022/05/12 05:26:27;;;;;;;4.27;3.97;;;19.90;97.20;;;;;;1741036;28;20191;-76
2022/05/12 05:27:17;;;;;;;4.45;4.05;;;19.90;97.20;;;;;;1735122;28;20876;-76
2022/05/12 05:28:10;;;;;;;4.00;3.60;;;19.90;97.20;;;;;;1735305;28;20565;-76
2022/05/12 05:29:01;;;;;;;6.00;3.38;;;20.00;97.20;;;;;;1735399;28;20204;-76
2022/05/12 05:29:53;;;;;;;5.65;3.60;;;20.00;97.20;;;;;;1735474;28;20226;-76
2022/05/12 05:30:45;;;;;;;5.55;3.85;;;20.00;97.20;;;;;;1735242;28;20239;-75
2022/05/12 05:31:38;;;;;;;3.78;3.47;;;20.00;97.20;;;;;;1735039;28;20203;-76
2022/05/12 05:32:29;;;;;;;4.45;3.22;;;20.10;97.20;;;;;;1733873;28;20226;-75
2022/05/12 05:33:21;;;;;;;3.73;3.37;;;20.10;97.20;;;;;;1735289;28;20203;-75
2022/05/12 05:34:12;;;;;;;5.95;3.38;;;20.10;97.20;;;;;;1735231;28;20580;-76
2022/05/12 05:35:04;;;;;;;5.40;4.17;;;20.20;97.20;;;;;;1735164;28;20220;-75
2022/05/12 05:35:57;;;;;;;4.18;3.72;;;20.20;97.20;;;;;;1736292;28;20204;-76
2022/05/12 05:36:47;;;;;;;3.53;3.22;;;20.20;97.20;;;;;;1742266;28;20222;-77
2022/05/12 05:37:39;;;;;;;4.27;3.87;;;20.20;97.20;;;;;;1742291;28;20223;-76
2022/05/12 05:38:30;;;;;;;6.80;3.40;;;20.30;97.20;;;;;;1742408;28;20242;-77
2022/05/12 05:39:23;;;;;;;4.00;3.70;;;20.30;97.20;;;;;;1743090;28;20203;-78
2022/05/12 05:40:17;;;;;;;5.43;3.38;;;20.30;97.20;;;;;;1738647;28;20674;-78
2022/05/12 05:41:09;;;;;;;4.28;3.88;;;20.30;97.20;;;;;;1736286;28;20199;-78
2022/05/12 05:42:04;;;;;;;4.68;3.47;;;20.40;97.20;;;;;;1736081;28;20212;-78
2022/05/12 05:42:57;;;;;;;4.40;4.10;;;20.40;97.20;;;;;;1736384;28;20270;-78
2022/05/12 05:43:48;;;;;;;4.03;3.40;;;20.40;97.20;;;;;;1736349;28;20207;-78
2022/05/12 05:44:40;;;;;;;4.00;3.40;;;20.50;97.20;;;;;;1736547;28;20196;-78
2022/05/12 05:45:31;;;;;;;4.57;3.35;;;20.50;97.20;;;;;;1738753;28;20484;-78
2022/05/12 05:46:23;;;;;;;3.30;3.00;;;20.50;97.20;;;;;;1735395;28;20212;-78
2022/05/12 05:47:15;;;;;;;3.42;3.13;;;20.50;97.20;;;;;;1735231;28;20211;-78
2022/05/12 05:48:08;;;;;;;3.22;2.92;;;20.60;97.20;;;;;;1736073;28;20243;-78
2022/05/12 05:48:58;;;;;;;4.18;3.78;;;20.60;97.20;;;;;;1735920;28;20721;-78
2022/05/12 05:49:50;;;;;;;4.43;3.40;;;20.70;97.20;;;;;;1736242;28;20565;-78
2022/05/12 05:54:12;;;;;;;3.47;2.95;;;20.80;97.20;;;;;;1736451;28;20276;-77
2022/05/12 05:55:04;;;;;;;4.25;2.60;;;20.80;97.20;;;;;;1735845;28;20482;-77
2022/05/12 05:55:57;;;;;;;6.35;2.75;;;20.80;97.20;;;;;;1736201;28;20196;-77
2022/05/12 05:56:48;;;;;;;8.18;2.60;;;20.90;97.20;;;;;;1735688;28;20204;-78
2022/05/12 05:57:40;;;;;;;4.83;2.60;;;20.90;97.20;;;;;;1735830;28;20647;-77
2022/05/12 05:58:31;;;;;;;2.45;2.25;;;20.90;97.20;;;;;;1735695;28;20200;-77
2022/05/12 05:59:22;;;;;;;3.10;2.23;;;21.00;97.20;;;;;;1734949;28;20231;-77
2022/05/12 06:00:15;;;;;;;2.60;2.35;;;21.00;97.20;;;;;;1740805;28;20651;-77
2022/05/12 06:01:07;;;;;;;3.53;2.00;;;21.00;97.20;;;;;;1735957;28;20191;-78
2022/05/12 06:01:58;;;;;;;3.72;2.55;;;21.10;97.20;;;;;;1736464;28;20200;-77
2022/05/12 06:02:51;;;;;;;2.77;2.50;;;21.10;97.20;;;;;;1739121;28;20795;-77
2022/05/12 06:03:42;;;;;;;4.00;2.50;;;21.10;97.20;;;;;;1739357;28;20207;-77
2022/05/12 06:04:33;;;;;;;2.23;2.03;;;21.10;97.20;;;;;;1740086;28;20592;-77
2022/05/12 06:05:24;;;;;;;3.35;2.78;;;21.10;97.20;;;;;;1740064;28;20462;-77
2022/05/12 06:06:16;;;;;;;4.20;2.03;;;21.10;97.20;;;;;;1740083;28;20234;-77
2022/05/12 06:07:07;;;;;;;4.25;2.33;;;21.10;97.20;;;;;;1739261;28;20443;-77
2022/05/12 06:07:59;;;;;;;5.10;2.30;;;21.10;97.20;;;;;;1739880;28;20263;-77
2022/05/12 06:08:49;;;;;;;3.25;2.30;;;21.10;97.20;;;;;;1740045;28;20462;-77
2022/05/12 06:09:41;;;;;;;5.43;2.33;;;21.10;97.20;;;;;;1739864;28;20200;-77
2022/05/12 06:10:33;;;;;;;4.00;2.40;;;21.10;97.20;;;;;;1740065;28;20199;-77
2022/05/12 06:11:25;;;;;;;3.20;2.22;;;21.10;97.20;;;;;;1739702;28;20196;-77
2022/05/12 06:12:17;;;;;;;4.55;2.58;;;21.20;97.20;;;;;;1740000;28;20197;-77
2022/05/12 06:13:09;;;;;;;3.50;2.15;;;21.20;97.20;;;;;;1739934;28;20719;-76
2022/05/12 06:13:59;;;;;;;3.85;2.40;;;21.20;97.20;;;;;;1739910;28;20263;-77
2022/05/12 06:14:51;;;;;;;2.80;2.20;;;21.30;97.20;;;;;;1740109;28;20196;-77
2022/05/12 06:15:43;;;;;;;4.18;2.28;;;21.30;97.20;;;;;;1739068;28;20206;-77
2022/05/12 06:16:35;;;;;;;3.58;2.10;;;21.30;97.20;;;;;;1744798;28;20197;-77
2022/05/12 06:17:26;;;;;;;5.60;2.50;;;21.40;97.20;;;;;;1746437;28;20199;-77
2022/05/12 06:18:19;;;;;;;3.20;2.37;;;21.40;97.20;;;;;;1746486;28;20601;-77
2022/05/12 06:19:10;;;;;;;3.55;2.13;;;21.40;97.20;;;;;;1743245;28;20210;-78
2022/05/12 06:20:01;;;;;;;6.93;2.40;;;21.40;97.20;;;;;;1742844;28;20199;-77
2022/05/12 06:20:53;;;;;;;3.25;2.80;;;21.40;97.20;;;;;;1742803;28;20210;-77
2022/05/12 06:21:44;;;;;;;3.58;2.50;;;21.40;97.20;;;;;;1742901;28;20213;-77
2022/05/12 06:22:35;;;;;;;2.20;2.00;;;21.40;97.20;;;;;;1742440;28;20196;-77
2022/05/12 06:23:27;;;;;;;3.77;2.23;;;21.40;97.20;;;;;;1742589;28;20195;-77
2022/05/12 06:24:18;;;;;;;2.30;2.10;;;21.40;97.20;;;;;;1742912;28;20207;-77
2022/05/12 06:25:13;;;;;;;3.17;2.63;;;21.40;97.20;;;;;;1743021;28;20199;-77
2022/05/12 06:26:06;;;;;;;3.28;2.20;;;21.40;97.20;;;;;;1742511;28;20272;-78
2022/05/12 06:26:58;;;;;;;2.42;2.22;;;21.40;97.20;;;;;;1742336;28;20199;-77
2022/05/12 06:27:48;;;;;;;2.83;2.15;;;21.50;97.20;;;;;;1742688;28;20296;-77
2022/05/12 06:28:42;;;;;;;2.53;2.00;;;21.40;97.20;;;;;;1742492;28;20285;-78
2022/05/12 06:29:33;;;;;;;2.35;2.15;;;21.40;97.20;;;;;;1742470;28;20228;-78
2022/05/12 06:30:25;;;;;;;3.23;2.60;;;21.50;97.20;;;;;;1739530;28;20218;-78
2022/05/12 06:31:24;;;;;;;3.67;2.70;;;21.50;97.20;;;;;;1735539;28;20257;-77
2022/05/12 06:32:15;;;;;;;3.53;2.50;;;21.50;97.20;;;;;;1735957;28;20203;-78
2022/05/12 06:33:07;;;;;;;3.87;2.47;;;21.50;97.20;;;;;;1735764;28;20250;-77
2022/05/12 06:34:00;;;;;;;2.58;2.38;;;21.50;97.20;;;;;;1735471;28;20446;-78
2022/05/12 06:34:52;;;;;;;2.55;2.03;;;21.50;97.20;;;;;;1735719;28;20203;-78
2022/05/12 06:35:43;;;;;;;4.85;2.50;;;21.50;97.20;;;;;;1735511;28;20711;-77
2022/05/12 06:36:35;;;;;;;2.20;1.95;;;21.60;97.20;;;;;;1735205;28;20306;-77
2022/05/12 06:37:25;;;;;;;2.28;2.08;;;21.60;97.20;;;;;;1735430;28;20785;-78
2022/05/12 06:38:17;;;;;;;7.17;2.73;;;21.60;97.20;;;;;;1735589;28;20673;-78
2022/05/12 06:39:08;;;;;;;4.03;2.10;;;21.70;97.20;;;;;;1735687;28;20207;-77
2022/05/12 06:40:00;;;;;;;3.00;2.23;;;21.70;97.20;;;;;;1735715;28;20196;-78
2022/05/12 06:40:52;;;;;;;2.13;2.00;;;21.80;97.20;;;;;;1735674;28;20231;-78
2022/05/12 06:41:44;;;;;;;4.35;2.20;;;21.80;97.20;;;;;;1735704;28;20195;-78
2022/05/12 06:42:35;;;;;;;2.40;2.10;;;21.90;97.20;;;;;;1735510;28;20237;-78
2022/05/12 06:43:27;;;;;;;2.40;2.20;;;22.00;97.20;;;;;;1735419;28;20192;-78
2022/05/12 06:44:18;;;;;;;5.20;2.22;;;22.10;97.20;;;;;;1735569;28;20236;-78
2022/05/12 06:45:12;;;;;;;2.72;2.28;;;22.20;97.20;;;;;;1740942;28;20249;-78
2022/05/12 06:46:03;;;;;;;4.88;2.47;;;22.20;97.20;;;;;;1742502;28;20654;-78
2022/05/12 06:46:55;;;;;;;2.20;1.92;;;22.20;97.20;;;;;;1737672;28;20750;-78
2022/05/12 06:47:48;;;;;;;4.38;2.20;;;22.30;97.20;;;;;;1735344;28;20686;-78
2022/05/12 06:48:39;;;;;;;4.35;2.10;;;22.30;97.20;;;;;;1735596;28;20643;-77
2022/05/12 06:49:31;;;;;;;3.08;2.20;;;22.40;97.20;;;;;;1735779;28;20204;-77
2022/05/12 06:50:25;;;;;;;2.45;2.05;;;22.50;97.20;;;;;;1735155;28;20280;-77
2022/05/12 06:51:17;;;;;;;4.07;2.55;;;22.50;97.20;;;;;;1735798;28;20200;-78
2022/05/12 06:52:10;;;;;;;2.88;2.33;;;22.50;97.20;;;;;;1735698;28;20196;-78
2022/05/12 06:53:01;;;;;;;3.05;2.17;;;22.50;97.20;;;;;;1735572;28;20266;-78
2022/05/12 06:53:52;;;;;;;2.50;2.30;;;22.50;97.20;;;;;;1735626;28;20212;-77
2022/05/12 06:54:44;;;;;;;2.40;2.20;;;22.50;97.20;;;;;;1736330;28;20719;-78
2022/05/12 06:55:35;;;;;;;3.83;2.63;;;22.50;97.20;;;;;;1735339;28;20208;-78
2022/05/12 06:56:26;;;;;;;2.60;2.40;;;22.50;97.20;;;;;;1735315;28;20286;-78
2022/05/12 06:57:21;;;;;;;2.65;2.30;;;22.40;97.20;;;;;;1734900;28;20211;-78
2022/05/12 06:58:17;;;;;;;2.90;2.10;;;22.40;97.20;;;;;;1735324;28;20198;-79
2022/05/12 06:59:08;;;;;;;4.10;2.58;;;22.40;97.20;;;;;;1736658;28;20236;-78
2022/05/12 07:00:00;;;;;;;2.75;2.55;;;22.50;97.20;;;;;;1735364;28;20287;-77
2022/05/12 07:00:50;;;;;;;2.60;2.35;;;22.50;97.20;;;;;;1735074;28;20196;-78
2022/05/12 07:01:42;;;;;;;2.87;2.40;;;22.50;97.20;;;;;;1735430;28;20314;-78
2022/05/12 07:02:33;;;;;;;2.58;2.38;;;22.50;97.20;;;;;;1735325;28;20204;-78
2022/05/12 07:03:25;;;;;;;2.22;2.10;;;22.50;97.20;;;;;;1736241;28;20733;-78
2022/05/12 07:04:16;;;;;;;3.40;2.40;;;22.50;97.20;;;;;;1736243;28;20200;-78
2022/05/12 07:05:09;;;;;;;2.73;2.20;;;22.50;97.20;;;;;;1735275;28;20199;-78
2022/05/12 07:06:02;;;;;;;3.13;2.28;;;22.60;97.20;;;;;;1735345;28;20231;-78
2022/05/12 07:06:54;;;;;;;2.88;2.33;;;22.60;97.20;;;;;;1734921;28;20287;-77
2022/05/12 07:07:45;;;;;;;3.05;2.20;;;22.70;97.20;;;;;;1735654;28;20200;-77
2022/05/12 07:08:40;;;;;;;2.20;2.00;;;22.70;97.20;;;;;;1735540;28;20287;-78
2022/05/12 07:09:31;;;;;;;3.85;2.40;;;22.80;97.20;;;;;;1735539;28;20457;-77
2022/05/12 07:10:25;;;;;;;4.32;2.88;;;22.80;97.20;;;;;;1735339;28;20231;-78
2022/05/12 07:11:16;;;;;;;2.58;2.38;;;22.80;97.20;;;;;;1735393;28;20204;-78
2022/05/12 07:12:11;;;;;;;5.07;2.70;;;22.80;97.20;;;;;;1730468;28;20262;-79
2022/05/12 07:13:02;;;;;;;2.20;1.92;;;22.90;97.20;;;;;;1733354;28;20714;-76
2022/05/12 07:13:53;;;;;;;3.50;2.23;;;22.90;97.20;;;;;;1734563;28;20746;-77
2022/05/12 07:14:44;;;;;;;2.95;2.50;;;22.90;97.20;;;;;;1736350;28;21010;-77
2022/05/12 07:15:36;;;;;;;3.03;2.37;;;23.00;97.20;;;;;;1741553;28;20199;-77
2022/05/12 07:16:27;;;;;;;4.15;2.63;;;23.00;97.20;;;;;;1741463;28;20252;-76
2022/05/12 07:17:19;;;;;;;2.23;2.03;;;23.00;97.20;;;;;;1741576;28;20199;-77
2022/05/12 07:18:10;;;;;;;3.15;2.33;;;23.10;97.20;;;;;;1741340;28;20210;-77
2022/05/12 07:19:02;;;;;;;2.13;2.03;;;23.10;97.20;;;;;;1740999;28;20205;-77
2022/05/12 07:26:34;;;;;;;2.35;2.05;;;23.10;97.20;;;;;;1733265;28;20231;-77
2022/05/12 07:27:10;;;;;;;4.28;2.35;;;23.50;97.20;;;;;;1699304;29;20234;-70
2022/05/12 07:28:02;;;;;;;2.80;2.60;;;23.60;97.20;;;;;;1699203;29;20749;-70
2022/05/12 07:28:53;;;;;;;5.70;2.53;;;23.70;97.20;;;;;;1700075;29;20557;-70
2022/05/12 07:29:45;;;;;;;2.50;2.30;;;23.80;97.20;;;;;;1700117;29;20270;-70
2022/05/12 07:31:43;;;;;;;3.25;2.17;;;23.80;97.20;;;;;;1713902;28;20744;-70
2022/05/12 07:32:37;;;;;;;2.58;2.30;;;23.80;97.20;;;;;;1734367;28;20208;-70
2022/05/12 07:33:29;;;;;;;3.92;2.30;;;23.80;97.20;;;;;;1734278;28;20215;-69
2022/05/12 07:34:21;;;;;;;2.85;2.47;;;23.90;97.20;;;;;;1734292;28;20226;-70
2022/05/12 07:35:13;;;;;;;3.15;2.22;;;23.90;97.20;;;;;;1734308;28;20295;-70
2022/05/12 07:36:07;;;;;;;3.55;2.60;;;23.90;97.20;;;;;;1734318;28;20196;-70
2022/05/12 07:37:01;;;;;;;3.20;2.35;;;24.00;97.20;;;;;;1734135;28;20204;-70
2022/05/12 07:37:52;;;;;;;2.35;2.10;;;24.00;97.20;;;;;;1734226;28;20231;-70
2022/05/12 07:38:45;;;;;;;2.93;2.20;;;24.10;97.20;;;;;;1734245;28;20682;-69
2022/05/12 07:39:36;;;;;;;2.47;2.28;;;24.10;97.20;;;;;;1734376;28;20219;-69
2022/05/12 07:40:29;;;;;;;4.15;2.70;;;24.10;97.20;;;;;;1734457;28;20211;-70
2022/05/12 07:41:20;;;;;;;2.72;2.53;;;24.20;97.20;;;;;;1734245;28;20218;-70
2022/05/12 07:42:11;;;;;;;4.37;2.60;;;24.20;97.20;;;;;;1734341;28;20203;-70
2022/05/12 07:43:02;;;;;;;4.95;2.60;;;24.20;97.20;;;;;;1734192;28;20491;-69
2022/05/12 07:43:54;;;;;;;3.90;2.33;;;24.20;97.20;;;;;;1734275;28;20231;-70
2022/05/12 07:44:46;;;;;;;2.25;2.05;;;24.20;97.20;;;;;;1734259;28;20219;-70
2022/05/12 07:45:37;;;;;;;2.50;2.30;;;24.20;97.20;;;;;;1734231;28;20207;-70
2022/05/12 07:46:31;;;;;;;6.30;2.83;;;24.30;97.20;;;;;;1734199;28;20202;-70
2022/05/12 07:47:22;;;;;;;2.65;2.35;;;24.30;97.20;;;;;;1734016;28;20230;-70
2022/05/12 07:48:14;;;;;;;3.63;2.03;;;24.30;97.20;;;;;;1728911;28;20188;-70
2022/05/12 07:49:06;;;;;;;2.55;1.90;;;24.30;97.20;;;;;;1727506;28;20216;-70
2022/05/12 07:49:59;;;;;;;2.67;2.47;;;24.30;97.20;;;;;;1727373;28;20208;-70
2022/05/12 07:50:50;;;;;;;3.67;2.67;;;24.30;97.20;;;;;;1727501;28;20208;-69
2022/05/12 07:51:42;;;;;;;3.20;2.30;;;24.30;97.20;;;;;;1727418;28;20221;-70
2022/05/12 07:52:34;;;;;;;3.03;2.30;;;24.40;97.20;;;;;;1727389;28;20209;-70
2022/05/12 07:53:26;;;;;;;4.93;2.25;;;24.40;97.20;;;;;;1727352;28;20228;-70
2022/05/12 07:54:17;;;;;;;2.70;2.20;;;24.40;97.20;;;;;;1727362;28;20247;-70
2022/05/12 07:55:09;;;;;;;2.63;2.43;;;24.50;97.20;;;;;;1727443;28;20204;-70
2022/05/12 07:56:00;;;;;;;2.58;2.30;;;24.50;97.20;;;;;;1727349;28;20243;-70
2022/05/12 07:56:52;;;;;;;3.00;2.35;;;24.50;97.20;;;;;;1727123;28;20262;-70
2022/05/12 07:57:42;;;;;;;2.55;2.35;;;24.50;97.20;;;;;;1727350;28;20212;-70
2022/05/12 07:58:35;;;;;;;4.13;2.30;;;24.60;97.20;;;;;;1727434;28;20699;-70
2022/05/12 07:59:27;;;;;;;4.40;2.78;;;24.60;97.20;;;;;;1727360;28;20200;-70
2022/05/12 08:00:20;;;;;;;3.50;2.33;;;24.60;97.20;;;;;;1727340;28;20196;-70
2022/05/12 08:01:12;;;;;;;3.95;2.40;;;24.60;97.20;;;;;;1727472;28;20212;-70
2022/05/12 08:02:04;;;;;;;2.75;2.20;;;24.70;97.20;;;;;;1727394;28;20852;-70
2022/05/12 08:02:56;;;;;;;2.95;2.30;;;24.70;97.20;;;;;;1727206;28;20208;-70
2022/05/12 08:03:48;;;;;;;4.32;2.30;;;24.70;97.20;;;;;;1727078;28;20223;-69
2022/05/12 08:04:39;;;;;;;2.92;2.30;;;24.70;97.20;;;;;;1728359;28;20250;-70
2022/05/12 08:05:31;;;;;;;5.70;2.13;;;24.70;97.20;;;;;;1727365;28;20207;-70
2022/05/12 08:06:22;;;;;;;7.47;2.50;;;24.70;97.20;;;;;;1727303;28;20242;-70
2022/05/12 08:07:14;;;;;;;3.13;2.05;;;24.70;97.20;;;;;;1726939;28;20220;-70
2022/05/12 08:08:07;;;;;;;6.38;2.40;;;24.70;97.20;;;;;;1727351;28;20226;-70
2022/05/12 08:08:59;;;;;;;3.63;2.17;;;24.60;97.20;;;;;;1727267;28;20270;-70
2022/05/12 08:09:50;;;;;;;2.53;2.20;;;24.60;97.20;;;;;;1727369;28;20235;-70
2022/05/12 08:10:42;;;;;;;3.60;2.60;;;24.60;97.20;;;;;;1727273;28;20193;-70
2022/05/12 08:11:33;;;;;;;3.13;2.83;;;24.60;97.20;;;;;;1727308;28;20247;-70
2022/05/12 08:12:24;;;;;;;8.13;3.10;;;24.50;97.20;;;;;;1727325;28;20204;-70
2022/05/12 08:13:16;;;;;;;3.53;2.45;;;24.50;97.20;;;;;;1727181;28;20447;-70
2022/05/12 08:14:08;;;;;;;3.45;2.60;;;24.60;97.20;;;;;;1727388;28;20200;-70
2022/05/12 08:14:59;;;;;;;2.78;2.20;;;24.70;97.20;;;;;;1727255;28;20231;-70
2022/05/12 08:15:53;;;;;;;7.20;2.43;;;24.70;97.20;;;;;;1727407;28;20725;-70
2022/05/12 08:16:46;;;;;;;2.40;2.20;;;24.80;97.20;;;;;;1727060;28;20205;-70
2022/05/12 08:17:37;;;;;;;4.65;2.30;;;24.90;97.20;;;;;;1727223;28;20564;-70
2022/05/12 08:18:29;;;;;;;2.70;2.20;;;24.90;97.20;;;;;;1727221;28;20196;-70
2022/05/12 08:19:20;;;;;;;2.55;2.35;;;25.00;97.20;;;;;;1728483;28;20211;-70
2022/05/12 08:20:12;;;;;;;2.90;2.33;;;25.10;97.20;;;;;;1734134;28;20206;-70
2022/05/12 08:21:03;;;;;;;2.67;2.13;;;25.20;97.20;;;;;;1734146;28;20203;-69
2022/05/12 08:21:55;;;;;;;2.47;2.28;;;25.30;97.20;;;;;;1734117;28;20208;-70
2022/05/12 08:22:46;;;;;;;2.08;1.98;;;25.30;97.20;;;;;;1733788;28;20215;-70
2022/05/12 08:23:40;;;;;;;3.53;2.20;;;25.40;97.20;;;;;;1733873;28;20234;-70
2022/05/12 08:24:31;;;;;;;4.90;2.30;;;25.40;97.20;;;;;;1733991;28;20442;-70
2022/05/12 08:25:22;;;;;;;2.53;2.33;;;25.50;97.20;;;;;;1734008;28;20227;-70
2022/05/12 08:26:14;;;;;;;3.30;2.23;;;25.60;97.20;;;;;;1734048;28;20199;-70
2022/05/12 08:27:05;;;;;;;4.30;2.65;;;25.70;97.20;;;;;;1733713;28;20203;-70
2022/05/12 08:27:57;;;;;;;2.25;2.03;;;25.80;97.20;;;;;;1733957;28;20243;-70
2022/05/12 08:28:50;;;;;;;2.55;2.35;;;25.90;97.20;;;;;;1734066;28;20600;-69
2022/05/12 08:29:41;;;;;;;3.55;2.30;;;26.10;97.20;;;;;;1734037;28;20200;-70
2022/05/12 08:30:33;;;;;;;4.97;2.35;;;26.30;97.20;;;;;;1730114;28;20211;-70
2022/05/12 08:31:29;;;;;;;3.15;2.55;;;26.30;97.20;;;;;;1727320;28;20215;-70
2022/05/12 08:32:21;;;;;;;3.45;2.67;;;26.40;97.20;;;;;;1727226;28;20204;-70
2022/05/12 08:33:12;;;;;;;5.32;2.67;;;26.40;97.20;;;;;;1727188;28;20235;-70
2022/05/12 08:34:04;;;;;;;2.40;2.20;;;26.30;97.20;;;;;;1727235;28;20201;-70
2022/05/12 08:34:55;;;;;;;2.95;2.45;;;26.30;97.20;;;;;;1727254;28;20200;-70
2022/05/12 08:35:47;;;;;;;3.03;2.73;;;26.30;97.20;;;;;;1727280;28;20223;-70
2022/05/12 08:36:39;;;;;;;2.70;2.50;;;26.40;97.20;;;;;;1726864;28;20283;-70
2022/05/12 08:37:30;;;;;;;5.20;2.40;;;26.40;97.20;;;;;;1727272;28;20451;-70
2022/05/12 08:38:24;;;;;;;4.80;2.80;;;26.50;97.20;;;;;;1727138;28;20204;-69
2022/05/12 08:39:18;;;;;;;4.35;2.55;;;26.60;97.20;;;;;;1727252;28;20490;-69
2022/05/12 08:40:16;;;;;;;2.40;2.20;;;26.60;97.20;;;;;;1727209;28;20207;-70
2022/05/12 08:41:19;;;;;;;2.75;2.50;;;26.60;97.20;;;;;;1727347;28;20284;-70
2022/05/12 08:42:19;;;;;;;3.22;2.60;;;26.60;97.20;;;;;;1727284;28;20215;-70
2022/05/12 08:43:16;;;;;;;3.00;2.70;;;26.50;97.20;;;;;;1727279;28;20675;-70
2022/05/12 08:44:11;;;;;;;3.28;2.95;;;26.40;97.20;;;;;;1727270;28;20240;-70
2022/05/12 08:45:06;;;;;;;4.50;2.33;;;26.30;97.20;;;;;;1731868;28;20199;-70
2022/05/12 08:46:02;;;;;;;6.03;2.80;;;26.30;97.20;;;;;;1733926;28;20474;-70
2022/05/12 08:46:56;;;;;;;3.22;2.90;;;26.20;97.20;;;;;;1729293;28;20196;-70
2022/05/12 08:47:50;;;;;;;3.17;2.97;;;26.20;97.20;;;;;;1727107;28;20279;-69
2022/05/12 08:48:45;;;;;;;3.57;2.90;;;26.10;97.20;;;;;;1727083;28;20530;-70
2022/05/12 08:49:40;;;;;;;2.72;2.53;;;26.10;97.20;;;;;;1727167;28;20498;-70
2022/05/12 08:50:33;;;;;;;3.90;2.40;;;26.10;97.20;;;;;;1727368;28;20200;-70
2022/05/12 08:51:24;;;;;;;2.40;2.25;;;26.10;97.20;;;;;;1727094;28;20235;-70
2022/05/12 08:52:21;;;;;;;3.80;2.60;;;26.10;97.20;;;;;;1727193;28;20526;-70
2022/05/12 08:53:16;;;;;;;4.35;2.72;;;26.10;97.20;;;;;;1727166;28;20853;-70
2022/05/12 08:54:15;;;;;;;4.78;2.45;;;26.20;97.20;;;;;;1727256;28;20196;-70
2022/05/12 08:55:16;;;;;;;2.60;2.15;;;26.20;97.20;;;;;;1727171;28;20672;-70
2022/05/12 08:56:07;;;;;;;3.40;2.50;;;26.30;97.20;;;;;;1727217;28;20208;-69
2022/05/12 08:57:04;;;;;;;3.10;2.67;;;26.40;97.20;;;;;;1726728;28;20206;-70
2022/05/12 08:58:01;;;;;;;2.90;2.40;;;26.40;97.20;;;;;;1727072;28;20720;-70
2022/05/12 08:58:54;;;;;;;5.17;2.53;;;26.60;97.20;;;;;;1727470;28;20563;-71
2022/05/12 08:59:46;;;;;;;4.00;2.70;;;26.70;97.20;;;;;;1734018;28;20476;-70
2022/05/12 09:00:44;;;;;;;4.07;3.00;;;26.80;97.20;;;;;;1733919;28;20438;-70
2022/05/12 09:01:41;;;;;;;3.20;2.90;;;26.80;97.20;;;;;;1733960;28;20957;-70
2022/05/12 09:02:42;;;;;;;3.25;2.50;;;26.90;97.20;;;;;;1734035;28;20892;-70
2022/05/12 09:03:47;;;;;;;2.65;2.35;;;27.10;97.20;;;;;;1733940;28;20274;-70
2022/05/12 09:05:00;;;;;;;6.03;2.50;;;27.20;97.20;;;;;;1733907;28;20215;-70
2022/05/12 09:05:58;;;;;;;2.33;2.13;;;27.20;97.20;;;;;;1734037;28;20702;-70
2022/05/12 09:06:56;;;;;;;3.58;2.55;;;27.40;97.20;;;;;;1733742;28;20561;-70
2022/05/12 09:07:55;;;;;;;2.83;2.60;;;27.50;97.20;;;;;;1733753;28;20600;-71
2022/05/12 09:08:53;;;;;;;5.25;2.97;;;27.50;97.20;;;;;;1733923;28;20453;-70
2022/05/12 09:09:53;;;;;;;2.45;2.35;;;27.60;97.20;;;;;;1733946;28;20235;-70
2022/05/12 09:10:59;;;;;;;3.13;2.70;;;27.80;97.20;;;;;;1733933;28;20215;-70
2022/05/12 09:11:56;;;;;;;2.78;2.58;;;27.80;97.20;;;;;;1733970;28;20443;-70
2022/05/12 09:12:52;;;;;;;4.07;2.40;;;27.90;97.20;;;;;;1733959;28;20556;-71
2022/05/12 09:13:48;;;;;;;3.10;2.78;;;28.00;97.20;;;;;;1729099;28;20472;-70
2022/05/12 09:14:48;;;;;;;4.13;2.70;;;28.00;97.20;;;;;;1727152;28;20224;-70
2022/05/12 09:15:46;;;;;;;3.80;2.45;;;28.00;97.20;;;;;;1727158;28;20212;-70
2022/05/12 09:16:38;;;;;;;2.88;2.45;;;28.00;97.20;;;;;;1726866;28;20204;-70
2022/05/12 09:17:37;;;;;;;4.07;3.00;;;27.90;97.20;;;;;;1727054;28;20212;-70
2022/05/12 09:18:34;;;;;;;3.00;2.70;;;27.80;97.20;;;;;;1726947;28;20443;-70
2022/05/12 09:19:26;;;;;;;2.80;2.60;;;27.70;97.20;;;;;;1727120;28;20451;-70
2022/05/12 09:20:18;;;;;;;2.70;2.50;;;27.60;97.20;;;;;;1727032;28;20465;-70
2022/05/12 09:21:12;;;;;;;3.23;2.50;;;27.60;97.20;;;;;;1726477;28;20422;-71
2022/05/12 09:22:04;;;;;;;3.83;2.87;;;27.60;97.20;;;;;;1726353;28;20479;-70
2022/05/12 09:22:55;;;;;;;3.10;2.80;;;27.60;97.20;;;;;;1726702;28;20454;-70
2022/05/12 09:23:47;;;;;;;3.37;2.67;;;27.70;97.20;;;;;;1726159;28;20561;-71
2022/05/12 09:24:39;;;;;;;3.47;2.97;;;27.80;97.20;;;;;;1726824;28;20889;-70
2022/05/12 09:25:34;;;;;;;2.95;2.65;;;27.90;97.20;;;;;;1727174;28;20467;-69
2022/05/12 09:26:48;;;;;;;4.90;2.90;;;28.00;97.20;;;;;;1727086;28;20205;-70
2022/05/12 09:27:40;;;;;;;3.80;3.03;;;28.20;97.20;;;;;;1722154;28;20494;-70
2022/05/12 09:28:34;;;;;;;5.50;2.73;;;28.30;97.20;;;;;;1733718;28;20482;-70
2022/05/12 09:29:27;;;;;;;5.43;2.77;;;28.30;97.20;;;;;;1733827;28;20930;-69
2022/05/12 09:30:32;;;;;;;4.33;2.50;;;28.30;97.20;;;;;;1733831;28;20439;-71
2022/05/12 09:31:23;;;;;;;3.20;2.50;;;28.30;97.20;;;;;;1733839;28;20442;-70
2022/05/12 09:32:22;;;;;;;3.23;2.67;;;28.30;97.20;;;;;;1733832;28;20438;-70
2022/05/12 09:33:24;;;;;;;3.83;2.90;;;28.30;97.20;;;;;;1733835;28;20204;-70
2022/05/12 09:34:25;;;;;;;3.50;3.20;;;28.20;97.20;;;;;;1733971;28;20291;-70
2022/05/12 09:35:23;;;;;;;3.27;2.93;;;28.20;97.20;;;;;;1735081;28;20443;-69
2022/05/12 09:36:17;;;;;;;3.40;2.83;;;28.10;97.20;;;;;;1735073;28;20478;-70
2022/05/12 09:37:18;;;;;;;2.83;2.60;;;28.00;97.20;;;;;;1734881;28;20457;-70
2022/05/12 09:38:20;;;;;;;3.40;3.10;;;28.00;97.20;;;;;;1735116;28;20581;-70
2022/05/12 09:39:12;;;;;;;4.77;2.60;;;28.00;97.20;;;;;;1735166;28;20962;-70
2022/05/12 09:40:20;;;;;;;3.80;3.27;;;27.90;97.20;;;;;;1735005;28;20999;-70
2022/05/12 09:41:16;;;;;;;3.97;2.95;;;27.90;97.20;;;;;;1735179;28;20446;-70
2022/05/12 09:42:17;;;;;;;3.10;2.80;;;27.90;97.20;;;;;;1733330;28;20208;-70
2022/05/12 09:43:19;;;;;;;4.83;3.13;;;27.80;97.20;;;;;;1735019;28;20457;-70
2022/05/12 09:44:17;;;;;;;3.97;3.17;;;27.80;97.20;;;;;;1735161;28;20822;-70
2022/05/12 09:45:22;;;;;;;3.00;2.80;;;27.70;97.20;;;;;;1735129;28;20280;-70
2022/05/12 09:46:22;;;;;;;3.70;3.00;;;27.70;97.20;;;;;;1735040;28;20242;-70
2022/05/12 09:47:17;;;;;;;3.35;2.70;;;27.70;97.20;;;;;;1734738;28;20464;-70
2022/05/12 09:48:16;;;;;;;3.27;2.90;;;27.70;97.20;;;;;;1734949;28;20664;-70